Archival Weather

Chicago O'Hare International

Chicago, Illinois (KORD)

Report from: Thursday, November 24, 2022 12:12 PM CST
Current time: Sunday, December 4, 2022 5:18 AM CST

Current weather
Weather history
Weather forecast

Temperature10.6°C (51.1°F)
Dew point2.8°C (37.0°F)
Winds 10 kts (5.1 m/s, 11.5 mph) West-Southwest (240°)
Visibility10 mi. (16.1 km)
Clouds Scattered clouds 1,500 ft. (457 m)
Ceiling: Broken clouds 5,000 ft. (1,524 m)
Broken clouds 6,500 ft. (1,981 m)
Broken clouds 25,000 ft. (7,620 m)
Altimeter30.07 in.Hg (1018 mB)
Relative humidity58 %
Density altitude-584 ft. (-178 m)
Remarks System requires maintenance
Automated weather observing station with precipitation discriminator
Flight conditions Visual Meteorological Conditions
Raw dataKORD 241812Z 24010KT 10SM SCT015 BKN050 BKN065 BKN250 11/03 A3007 RMK AO2 T01060028 $
An error has occurred. This application may no longer respond until reloaded. Reload 🗙